Time;durP1;ratioP1;P1;durP2;ratioP2;P2;SDS_P1;SDS_P2;PMS_P1;PMS_P2;Temp;Humidity;BMP_temperature;BMP_pressure;BME280_temperature;BME280_humidity;BME280_pressure;Samples;Min_cycle;Max_cycle;Signal;HPM_P1;HPM_P2
2022/08/27 00:00:41;;;;;;;9.27;2.53;;;24.50;99.90;;;;;;5052304;28;20644;-70
2022/08/27 00:03:08;;;;;;;5.75;2.67;;;24.50;99.90;;;;;;5052540;28;20449;-70
2022/08/27 00:05:35;;;;;;;5.20;2.80;;;24.40;99.90;;;;;;5053168;28;20087;-70
2022/08/27 00:08:04;;;;;;;5.13;2.85;;;24.40;99.90;;;;;;5052071;28;20040;-70
2022/08/27 00:10:30;;;;;;;4.90;2.33;;;24.40;99.90;;;;;;5052162;28;20044;-70
2022/08/27 00:12:56;;;;;;;8.43;2.67;;;24.40;99.90;;;;;;5052181;28;20035;-70
2022/08/27 00:15:23;;;;;;;4.28;2.60;;;24.30;99.90;;;;;;5052133;28;20025;-70
2022/08/27 00:17:50;;;;;;;5.72;2.70;;;24.30;99.90;;;;;;5052531;28;20025;-70
2022/08/27 00:20:19;;;;;;;6.38;2.90;;;24.30;99.90;;;;;;5052118;28;20071;-70
2022/08/27 00:22:45;;;;;;;5.10;2.75;;;24.30;99.90;;;;;;5050613;28;20055;-70
2022/08/27 00:25:12;;;;;;;9.50;3.15;;;24.30;99.90;;;;;;5052482;28;20036;-70
2022/08/27 00:27:38;;;;;;;5.97;3.20;;;24.30;99.90;;;;;;5051624;28;20122;-71
2022/08/27 00:30:08;;;;;;;5.47;2.50;;;24.20;99.90;;;;;;5051867;28;20417;-70
2022/08/27 00:32:34;;;;;;;6.07;2.90;;;24.30;99.90;;;;;;5051737;28;20029;-70
2022/08/27 00:35:00;;;;;;;7.53;2.97;;;24.30;99.90;;;;;;5052019;28;20025;-71
2022/08/27 00:37:26;;;;;;;6.13;2.90;;;24.30;99.90;;;;;;5052331;28;20067;-71
2022/08/27 00:39:52;;;;;;;7.82;3.33;;;24.20;99.90;;;;;;5052379;28;20101;-71
2022/08/27 00:42:19;;;;;;;4.60;2.78;;;24.20;99.90;;;;;;5052228;28;20423;-71
2022/08/27 00:44:45;;;;;;;6.30;2.70;;;24.30;99.90;;;;;;5052274;28;20025;-71
2022/08/27 00:47:23;;;;;;;6.25;2.70;;;24.30;99.90;;;;;;5052800;28;20033;-71
2022/08/27 00:49:54;;;;;;;7.20;2.67;;;24.20;99.90;;;;;;5055941;28;20452;-71
2022/08/27 00:52:28;;;;;;;8.07;3.08;;;24.20;99.90;;;;;;5054430;28;20025;-71
2022/08/27 00:55:19;;;;;;;7.05;3.00;;;24.30;99.90;;;;;;5054434;28;20029;-71
2022/08/27 00:57:51;;;;;;;6.18;2.92;;;24.30;99.90;;;;;;5056040;28;20377;-71
2022/08/27 01:00:19;;;;;;;5.32;2.63;;;24.30;99.90;;;;;;5055964;28;20059;-71
2022/08/27 01:02:46;;;;;;;5.72;2.58;;;24.30;99.90;;;;;;5055725;28;20428;-71
2022/08/27 01:05:17;;;;;;;9.10;2.90;;;24.30;99.90;;;;;;5055967;28;20054;-71
2022/08/27 01:07:47;;;;;;;8.38;2.70;;;24.30;99.90;;;;;;5055832;28;20123;-71
2022/08/27 01:10:17;;;;;;;7.93;2.72;;;24.30;99.90;;;;;;5055970;28;20028;-71
2022/08/27 01:12:44;;;;;;;5.80;2.40;;;24.30;99.90;;;;;;5055799;28;20017;-71
2022/08/27 01:15:16;;;;;;;5.35;2.40;;;24.30;99.90;;;;;;5055848;28;20029;-71
2022/08/27 01:17:43;;;;;;;7.70;2.70;;;24.30;99.90;;;;;;5055713;28;20025;-71
2022/08/27 01:20:22;;;;;;;5.50;2.42;;;24.40;99.90;;;;;;5055403;28;20493;-71
2022/08/27 01:22:56;;;;;;;5.63;2.40;;;24.30;99.90;;;;;;5054015;28;20025;-71
2022/08/27 01:25:24;;;;;;;7.00;2.65;;;24.40;99.90;;;;;;5055735;28;20025;-71
2022/08/27 01:27:51;;;;;;;7.15;2.97;;;24.40;99.90;;;;;;5053620;28;20114;-71
2022/08/27 01:30:20;;;;;;;5.72;2.60;;;24.40;99.90;;;;;;5055142;28;20501;-71
2022/08/27 01:32:47;;;;;;;8.45;2.47;;;24.40;99.90;;;;;;5055153;28;20489;-71
2022/08/27 01:35:15;;;;;;;5.63;2.75;;;24.40;99.90;;;;;;5055137;28;20049;-71
2022/08/27 01:37:43;;;;;;;10.38;3.00;;;24.30;99.90;;;;;;5055011;28;20091;-71
2022/08/27 01:40:10;;;;;;;7.70;2.67;;;24.20;99.90;;;;;;5055000;28;20036;-71
2022/08/27 01:42:42;;;;;;;5.70;2.55;;;24.20;99.90;;;;;;5053641;28;20025;-71
2022/08/27 01:45:14;;;;;;;9.73;2.92;;;24.20;99.90;;;;;;5055200;28;20466;-71
2022/08/27 01:47:40;;;;;;;6.35;2.55;;;24.20;99.90;;;;;;5055027;28;20029;-71
2022/08/27 01:50:13;;;;;;;4.70;2.78;;;24.20;99.90;;;;;;5055088;28;20028;-71
2022/08/27 01:52:40;;;;;;;6.82;3.00;;;24.10;99.90;;;;;;5055209;28;20029;-71
2022/08/27 01:55:10;;;;;;;4.80;2.58;;;24.10;99.90;;;;;;5055078;28;20079;-71
2022/08/27 01:57:36;;;;;;;8.63;2.70;;;24.10;99.90;;;;;;5054676;28;20024;-71
2022/08/27 02:00:06;;;;;;;5.07;2.60;;;23.90;99.90;;;;;;5054567;28;20112;-71
2022/08/27 02:02:32;;;;;;;6.82;2.72;;;23.90;99.90;;;;;;5054559;28;20025;-71
2022/08/27 02:04:59;;;;;;;7.75;2.58;;;23.90;99.90;;;;;;5054519;28;20029;-71
2022/08/27 02:07:25;;;;;;;5.90;2.90;;;23.90;99.90;;;;;;5054365;28;20033;-71
2022/08/27 02:09:51;;;;;;;7.00;2.78;;;23.80;99.90;;;;;;5054444;28;20112;-71
2022/08/27 02:12:17;;;;;;;6.10;2.63;;;23.90;99.90;;;;;;5054523;28;20537;-71
2022/08/27 02:14:43;;;;;;;8.18;2.60;;;23.80;99.90;;;;;;5054799;28;20484;-71
2022/08/27 02:17:11;;;;;;;7.43;2.70;;;23.80;99.90;;;;;;5054615;28;20025;-71
2022/08/27 02:19:37;;;;;;;4.97;2.42;;;23.90;99.90;;;;;;5054193;28;20017;-71
2022/08/27 02:22:04;;;;;;;7.75;2.40;;;23.90;99.90;;;;;;5054165;28;20112;-71
2022/08/27 02:24:30;;;;;;;;;;;23.90;99.90;;;;;;5055034;28;20017;-71
2022/08/27 02:26:56;;;;;;;4.50;2.60;;;23.90;99.90;;;;;;5053966;28;19923;-71
2022/08/27 02:29:23;;;;;;;;;;;23.90;99.90;;;;;;5054549;28;20158;-71
2022/08/27 02:31:49;;;;;;;8.02;2.30;;;24.00;99.90;;;;;;5054422;28;20003;-71
2022/08/27 02:34:16;;;;;;;8.13;2.75;;;24.00;99.90;;;;;;5053930;28;20025;-71
2022/08/27 02:36:43;;;;;;;7.10;2.40;;;24.10;99.90;;;;;;5054036;28;20057;-71
2022/08/27 02:39:10;;;;;;;5.32;2.55;;;24.10;99.90;;;;;;5053923;28;20094;-71
2022/08/27 02:41:36;;;;;;;6.97;2.50;;;24.00;99.90;;;;;;5054359;28;20410;-71
2022/08/27 02:44:04;;;;;;;7.30;2.50;;;24.00;99.90;;;;;;5054235;28;20075;-71
2022/08/27 02:46:30;;;;;;;7.45;2.78;;;23.90;99.90;;;;;;5053944;28;20035;-71
2022/08/27 02:48:56;;;;;;;5.88;2.22;;;23.90;99.90;;;;;;5054470;28;20033;-71
2022/08/27 02:51:22;;;;;;;7.75;2.70;;;24.00;99.90;;;;;;5053659;28;20426;-71
2022/08/27 02:53:49;;;;;;;5.88;2.40;;;24.00;99.90;;;;;;5052306;28;20033;-71
2022/08/27 02:56:15;;;;;;;5.60;2.28;;;24.00;99.90;;;;;;5054054;28;20060;-71
2022/08/27 02:58:41;;;;;;;9.15;2.50;;;23.90;99.90;;;;;;5053539;28;20489;-71
2022/08/27 03:01:07;;;;;;;6.43;2.90;;;23.90;99.90;;;;;;5053501;28;20021;-71
2022/08/27 03:03:33;;;;;;;4.53;2.28;;;23.80;99.90;;;;;;5053436;28;20091;-71
2022/08/27 03:05:59;;;;;;;7.82;2.50;;;23.70;99.90;;;;;;5053553;28;20031;-71
2022/08/27 03:08:26;;;;;;;7.15;2.70;;;23.60;99.90;;;;;;5053816;28;20084;-71
2022/08/27 03:10:54;;;;;;;7.57;3.08;;;23.60;99.90;;;;;;5052863;28;20128;-71
2022/08/27 03:13:20;;;;;;;6.13;2.85;;;23.50;99.90;;;;;;5053137;28;20040;-71
2022/08/27 03:15:47;;;;;;;6.55;2.58;;;23.50;99.90;;;;;;5053594;28;20330;-71
2022/08/27 03:18:17;;;;;;;5.93;2.47;;;23.50;99.90;;;;;;5053208;28;20028;-71
2022/08/27 03:20:46;;;;;;;7.90;2.60;;;23.50;99.90;;;;;;5053115;28;20029;-71
2022/08/27 03:23:13;;;;;;;4.88;2.72;;;23.60;99.90;;;;;;5052984;28;20032;-71
2022/08/27 03:25:44;;;;;;;10.15;2.50;;;23.60;99.90;;;;;;5051732;28;20485;-70
2022/08/27 03:28:13;;;;;;;8.15;2.60;;;23.50;99.90;;;;;;5053252;28;20075;-71
2022/08/27 03:30:40;;;;;;;7.18;2.60;;;23.50;99.90;;;;;;5052794;28;20151;-71
2022/08/27 03:33:07;;;;;;;7.07;2.35;;;23.50;99.90;;;;;;5053101;28;20037;-70
2022/08/27 03:35:33;;;;;;;;;;;23.40;99.90;;;;;;5053248;28;20107;-71
2022/08/27 03:37:59;;;;;;;5.50;2.60;;;23.40;99.90;;;;;;5052790;28;19947;-71
2022/08/27 03:40:25;;;;;;;6.22;2.60;;;23.30;99.90;;;;;;5052770;28;20021;-71
2022/08/27 03:42:51;;;;;;;6.72;2.42;;;23.30;99.90;;;;;;5052672;28;20031;-70
2022/08/27 03:45:17;;;;;;;6.60;2.75;;;23.40;99.90;;;;;;5052700;28;20027;-71
2022/08/27 03:47:43;;;;;;;6.28;2.60;;;23.30;99.90;;;;;;5052882;28;20428;-71
2022/08/27 03:50:10;;;;;;;9.38;2.35;;;23.20;99.90;;;;;;5052577;28;20029;-71
2022/08/27 03:52:37;;;;;;;7.25;2.60;;;23.20;99.90;;;;;;5052546;28;20358;-71
2022/08/27 03:55:06;;;;;;;6.05;2.55;;;23.20;99.90;;;;;;5052486;28;20381;-71
2022/08/27 03:57:32;;;;;;;5.35;2.80;;;23.20;99.90;;;;;;5052964;28;20115;-71
2022/08/27 03:59:59;;;;;;;9.73;3.10;;;23.20;99.90;;;;;;5052888;28;20032;-71
2022/08/27 04:02:26;;;;;;;5.40;2.67;;;23.20;99.90;;;;;;5052524;28;20029;-71
2022/08/27 04:04:52;;;;;;;7.65;2.70;;;23.20;99.90;;;;;;5052360;28;20099;-71
2022/08/27 04:07:18;;;;;;;9.57;2.90;;;23.30;99.90;;;;;;5052667;28;20091;-71
2022/08/27 04:09:44;;;;;;;4.70;2.30;;;23.30;99.90;;;;;;5052181;28;20081;-72
2022/08/27 04:12:11;;;;;;;6.82;2.30;;;23.20;99.90;;;;;;5052220;28;20107;-71
2022/08/27 04:14:37;;;;;;;6.68;3.38;;;23.20;99.90;;;;;;5052231;28;20056;-71
2022/08/27 04:17:04;;;;;;;6.95;2.70;;;23.30;99.90;;;;;;5052566;28;20369;-71
2022/08/27 04:19:33;;;;;;;7.45;2.65;;;23.20;99.90;;;;;;5052237;28;20017;-70
2022/08/27 04:22:05;;;;;;;6.57;3.08;;;23.20;99.90;;;;;;5051807;28;20111;-71
2022/08/27 04:24:33;;;;;;;8.15;2.95;;;23.20;99.90;;;;;;5052109;28;20025;-71
2022/08/27 04:27:01;;;;;;;8.45;2.80;;;23.10;99.90;;;;;;5051883;28;20080;-70
2022/08/27 04:29:28;;;;;;;6.60;3.10;;;23.00;99.90;;;;;;5051998;28;20032;-71
2022/08/27 04:31:56;;;;;;;6.40;3.10;;;23.00;99.90;;;;;;5052511;28;20032;-71
2022/08/27 04:34:22;;;;;;;9.85;2.90;;;23.00;99.90;;;;;;5051933;28;20021;-71
2022/08/27 04:36:49;;;;;;;5.38;2.70;;;23.00;99.90;;;;;;5052165;28;20128;-70
2022/08/27 04:39:14;;;;;;;;;;;22.90;99.90;;;;;;5051333;28;20033;-71
2022/08/27 04:41:41;;;;;;;6.80;3.03;;;22.90;99.90;;;;;;5052802;28;19926;-71
2022/08/27 04:44:09;;;;;;;8.15;3.30;;;22.80;99.90;;;;;;5052329;28;20108;-70
2022/08/27 04:46:39;;;;;;;6.20;2.85;;;22.90;99.90;;;;;;5052267;28;20036;-71
2022/08/27 04:49:09;;;;;;;6.53;2.80;;;22.80;99.90;;;;;;5052169;28;20036;-71
2022/08/27 04:51:35;;;;;;;7.35;3.50;;;22.80;99.90;;;;;;5052239;28;20135;-71
2022/08/27 04:54:03;;;;;;;9.07;3.08;;;22.80;99.90;;;;;;5052128;28;20036;-71
2022/08/27 04:56:29;;;;;;;6.70;2.50;;;22.80;99.90;;;;;;5052131;28;20115;-71
2022/08/27 04:58:55;;;;;;;;;;;22.80;99.90;;;;;;5052955;28;20480;-70
2022/08/27 05:01:25;;;;;;;7.35;3.60;;;22.80;99.90;;;;;;5052123;28;20368;-70
2022/08/27 05:03:52;;;;;;;7.35;3.50;;;22.80;99.90;;;;;;5052722;28;20346;-70
2022/08/27 05:06:18;;;;;;;8.68;3.38;;;22.90;99.90;;;;;;5051898;28;20074;-71
2022/08/27 05:08:46;;;;;;;7.85;3.35;;;22.80;99.90;;;;;;5052202;28;20568;-70
2022/08/27 05:11:14;;;;;;;7.50;3.33;;;22.80;99.90;;;;;;5051964;28;20021;-70
2022/08/27 05:13:42;;;;;;;9.43;3.40;;;22.90;99.90;;;;;;5051518;28;20033;-70
2022/08/27 05:16:14;;;;;;;10.88;3.60;;;22.90;99.90;;;;;;5051650;28;20032;-70
2022/08/27 05:18:41;;;;;;;7.93;3.58;;;23.00;99.90;;;;;;5051619;28;20036;-69
2022/08/27 05:21:08;;;;;;;7.85;3.38;;;23.00;99.90;;;;;;5051600;28;20576;-70
2022/08/27 05:23:34;;;;;;;9.88;3.05;;;23.30;99.90;;;;;;5051449;28;20036;-70
2022/08/27 05:26:01;;;;;;;5.63;2.92;;;24.10;99.90;;;;;;5051164;28;20025;-71
2022/08/27 05:28:28;;;;;;;6.60;2.83;;;25.30;99.90;;;;;;5051752;28;20059;-70
2022/08/27 05:31:02;;;;;;;5.00;2.85;;;26.20;99.90;;;;;;5051810;28;20028;-70
2022/08/27 05:33:29;;;;;;;7.05;2.60;;;27.20;99.90;;;;;;5051835;28;20130;-70
2022/08/27 05:35:56;;;;;;;;;;;28.00;99.90;;;;;;5055670;28;20040;-70
2022/08/27 05:38:25;;;;;;;6.57;2.53;;;28.60;99.90;;;;;;5055090;28;19959;-70
2022/08/27 05:41:07;;;;;;;8.18;2.22;;;28.90;99.90;;;;;;5055002;28;20119;-71
2022/08/27 05:43:35;;;;;;;6.72;2.25;;;29.10;99.90;;;;;;5055159;28;20196;-70
2022/08/27 05:46:07;;;;;;;7.38;2.42;;;29.90;99.90;;;;;;5055050;28;20112;-70
2022/08/27 05:48:34;;;;;;;7.72;2.25;;;30.40;99.90;;;;;;5054619;28;20071;-70
2022/08/27 05:51:28;;;;;;;5.82;2.15;;;31.10;99.90;;;;;;5054475;28;20117;-71
2022/08/27 05:54:03;;;;;;;5.10;2.22;;;31.60;99.90;;;;;;5053574;28;20040;-70
2022/08/27 05:56:33;;;;;;;5.07;2.20;;;31.40;99.90;;;;;;5054395;28;20124;-70
2022/08/27 06:01:47;;;;;;;5.20;2.35;;;31.60;99.90;;;;;;5054485;28;20040;-70
2022/08/27 06:04:14;;;;;;;5.47;2.10;;;32.10;99.90;;;;;;5054224;28;20025;-70
2022/08/27 06:06:42;;;;;;;4.97;2.22;;;32.20;99.90;;;;;;5054516;28;20112;-70
2022/08/27 06:09:10;;;;;;;5.80;2.30;;;32.00;99.90;;;;;;5054756;28;20041;-70
2022/08/27 06:11:37;;;;;;;8.00;2.40;;;32.40;99.90;;;;;;5054348;28;20021;-71
2022/08/27 06:14:04;;;;;;;4.22;2.13;;;33.10;99.90;;;;;;5054267;28;20170;-70
2022/08/27 06:16:31;;;;;;;6.47;1.95;;;34.30;99.90;;;;;;5054253;28;20107;-70
2022/08/27 06:18:57;;;;;;;6.97;2.20;;;35.60;99.90;;;;;;5054464;28;20413;-70
2022/08/27 06:21:24;;;;;;;4.65;1.75;;;36.80;98.00;;;;;;5054331;28;20373;-70
2022/08/27 06:23:52;;;;;;;6.93;1.75;;;37.60;97.40;;;;;;5054239;28;20028;-70
2022/08/27 06:26:19;;;;;;;6.65;1.98;;;38.60;95.20;;;;;;5054073;28;20118;-70
2022/08/27 06:28:45;;;;;;;4.53;1.92;;;39.10;94.80;;;;;;5054023;28;20128;-70
2022/08/27 06:31:15;;;;;;;5.57;1.55;;;38.90;93.80;;;;;;5054340;28;20032;-70
2022/08/27 06:33:43;;;;;;;6.70;1.60;;;39.50;93.40;;;;;;5053879;28;20021;-70
2022/08/27 06:36:11;;;;;;;4.93;1.70;;;39.80;92.70;;;;;;5054020;28;20465;-70
2022/08/27 06:38:38;;;;;;;4.75;1.80;;;40.70;92.20;;;;;;5054331;28;20465;-70
2022/08/27 06:41:06;;;;;;;6.53;1.92;;;41.30;91.30;;;;;;5052348;28;20032;-70
2022/08/27 06:43:36;;;;;;;7.00;1.85;;;42.00;90.80;;;;;;5053853;28;20025;-71
2022/08/27 06:46:04;;;;;;;5.55;1.90;;;43.00;89.70;;;;;;5053487;28;20075;-70
2022/08/27 06:48:30;;;;;;;6.75;1.65;;;43.40;87.10;;;;;;5053508;28;20037;-70
2022/08/27 06:50:56;;;;;;;5.93;1.55;;;43.70;86.30;;;;;;5053454;28;20116;-70
2022/08/27 06:53:22;;;;;;;5.15;1.80;;;43.30;84.90;;;;;;5053549;28;20025;-70
2022/08/27 06:55:48;;;;;;;4.22;1.70;;;43.60;85.60;;;;;;5053553;28;20029;-70
2022/08/27 06:58:17;;;;;;;6.10;1.70;;;43.30;84.30;;;;;;5053910;28;20052;-70
2022/08/27 07:00:43;;;;;;;5.22;1.52;;;43.10;83.80;;;;;;5053319;28;20025;-70
2022/08/27 07:03:10;;;;;;;7.55;1.70;;;42.80;84.90;;;;;;5053379;28;20025;-70
2022/08/27 07:05:38;;;;;;;4.32;1.50;;;43.40;84.30;;;;;;5051852;28;20021;-70
2022/08/27 07:08:06;;;;;;;3.60;1.48;;;43.40;82.90;;;;;;5053438;28;20099;-71
2022/08/27 07:10:33;;;;;;;4.43;1.50;;;43.30;83.90;;;;;;5053221;28;20029;-71
2022/08/27 07:13:00;;;;;;;5.93;1.60;;;43.20;83.50;;;;;;5053037;28;20054;-70
2022/08/27 07:15:26;;;;;;;7.93;1.52;;;43.30;83.30;;;;;;5053365;28;20024;-70
2022/08/27 07:17:53;;;;;;;5.03;1.77;;;43.70;82.70;;;;;;5052971;28;20087;-70
2022/08/27 07:20:19;;;;;;;5.32;1.60;;;43.30;83.20;;;;;;5053203;28;20199;-70
2022/08/27 07:22:47;;;;;;;8.18;1.90;;;43.20;83.30;;;;;;5053066;28;20059;-71
2022/08/27 07:25:19;;;;;;;5.45;1.67;;;43.30;83.50;;;;;;5053055;28;20033;-71
2022/08/27 07:27:48;;;;;;;5.07;1.60;;;42.60;83.90;;;;;;5052668;28;20084;-71
2022/08/27 07:30:16;;;;;;;6.28;1.80;;;41.30;83.90;;;;;;5053370;28;20439;-70
2022/08/27 07:32:43;;;;;;;5.22;2.05;;;39.30;87.40;;;;;;5052723;28;20067;-70
2022/08/27 07:35:10;;;;;;;4.68;1.80;;;38.50;90.00;;;;;;5052600;28;20101;-70
2022/08/27 07:37:37;;;;;;;7.68;1.92;;;37.40;90.80;;;;;;5052679;28;20040;-70
2022/08/27 07:40:09;;;;;;;9.43;2.45;;;36.90;91.30;;;;;;5052771;28;20032;-71
2022/08/27 07:45:20;;;;;;;7.13;2.17;;;36.10;92.40;;;;;;5052717;28;20036;-70
2022/08/27 07:47:47;;;;;;;10.38;2.08;;;35.30;93.20;;;;;;5052920;28;20438;-70
2022/08/27 07:50:14;;;;;;;4.30;2.10;;;34.80;93.70;;;;;;5052485;28;20426;-70
2022/08/27 07:52:42;;;;;;;5.22;2.50;;;34.10;94.50;;;;;;5052856;28;20082;-70
2022/08/27 07:55:12;;;;;;;8.10;2.35;;;33.50;95.10;;;;;;5052373;28;20056;-70
2022/08/27 07:57:39;;;;;;;4.43;1.88;;;33.30;95.50;;;;;;5052150;28;20025;-71
2022/08/27 08:00:09;;;;;;;4.20;2.10;;;33.00;96.20;;;;;;5052608;28;20064;-70
2022/08/27 08:02:36;;;;;;;4.60;2.00;;;32.60;96.50;;;;;;5052987;28;20028;-71
2022/08/27 08:05:02;;;;;;;11.40;2.58;;;32.50;97.00;;;;;;5052352;28;20390;-71
2022/08/27 08:07:28;;;;;;;5.97;2.22;;;32.90;96.80;;;;;;5052661;28;20037;-71
2022/08/27 08:09:54;;;;;;;;;;;33.30;96.40;;;;;;5053017;28;20043;-70
2022/08/27 08:12:20;;;;;;;6.07;1.92;;;33.60;96.10;;;;;;5052316;28;19905;-71
2022/08/27 08:14:46;;;;;;;;;;;33.40;96.10;;;;;;5051885;28;20123;-71
2022/08/27 08:17:13;;;;;;;5.45;2.13;;;33.50;96.00;;;;;;5052080;28;20401;-71
2022/08/27 08:19:39;;;;;;;6.72;2.25;;;33.60;96.30;;;;;;5052448;28;20040;-70
2022/08/27 08:22:06;;;;;;;6.82;2.30;;;33.70;96.50;;;;;;5052197;28;20112;-71
2022/08/27 08:24:35;;;;;;;6.45;2.40;;;33.80;96.80;;;;;;5052144;28;20027;-71
2022/08/27 08:27:01;;;;;;;7.10;2.08;;;33.90;96.70;;;;;;5051974;28;20105;-71
2022/08/27 08:29:27;;;;;;;5.80;2.35;;;33.90;97.20;;;;;;5052439;28;20025;-71
2022/08/27 08:31:53;;;;;;;;;;;33.80;96.70;;;;;;5052326;28;20035;-71
2022/08/27 08:34:19;;;;;;;6.82;2.33;;;34.10;97.20;;;;;;5052251;28;20226;-70
2022/08/27 08:36:46;;;;;;;5.00;1.67;;;34.10;97.10;;;;;;5051937;28;20473;-71
2022/08/27 08:39:12;;;;;;;7.93;1.98;;;34.00;97.40;;;;;;5052778;28;20033;-72
2022/08/27 08:41:43;;;;;;;;;;;33.80;97.90;;;;;;5050882;28;20040;-71
2022/08/27 08:44:32;;;;;;;8.18;1.92;;;33.40;98.10;;;;;;5051830;28;19909;-71
2022/08/27 08:47:13;;;;;;;5.35;1.75;;;33.20;98.90;;;;;;5051403;28;20041;-71
2022/08/27 08:50:00;;;;;;;5.53;2.00;;;33.10;99.10;;;;;;5052261;28;20053;-71
2022/08/27 08:52:56;;;;;;;7.93;1.90;;;33.20;99.70;;;;;;5052106;28;20078;-71
2022/08/27 08:55:22;;;;;;;7.90;2.15;;;33.00;99.50;;;;;;5052238;28;20445;-71
2022/08/27 08:58:09;;;;;;;6.57;2.00;;;33.30;99.40;;;;;;5051602;28;20463;-71
2022/08/27 09:00:36;;;;;;;6.88;2.20;;;33.40;99.20;;;;;;5040599;28;20037;-71
2022/08/27 09:03:02;;;;;;;6.57;2.22;;;32.90;99.90;;;;;;5051825;28;20115;-70
2022/08/27 09:05:29;;;;;;;;;;;32.70;99.90;;;;;;5052439;28;20025;-71
2022/08/27 09:08:14;;;;;;;8.07;2.03;;;32.40;99.90;;;;;;5051804;28;20341;-71
2022/08/27 09:11:01;;;;;;;5.68;1.90;;;32.60;99.90;;;;;;5055542;28;20046;-71
2022/08/27 09:13:33;;;;;;;5.45;2.20;;;32.20;99.90;;;;;;5055873;28;20059;-71
2022/08/27 09:16:02;;;;;;;9.38;2.55;;;32.30;99.90;;;;;;5055779;28;20021;-71
2022/08/27 09:18:30;;;;;;;6.25;2.53;;;32.50;99.90;;;;;;5055852;28;20056;-71
2022/08/27 09:21:15;;;;;;;7.03;1.90;;;32.70;99.90;;;;;;5055628;28;20045;-71
2022/08/27 09:24:03;;;;;;;6.13;1.70;;;32.30;99.90;;;;;;5056068;28;20330;-71
2022/08/27 09:26:31;;;;;;;8.57;2.00;;;32.40;99.90;;;;;;5055106;28;20481;-71
2022/08/27 09:29:15;;;;;;;4.85;1.95;;;32.30;99.90;;;;;;5055073;28;20037;-71
2022/08/27 09:32:08;;;;;;;5.05;1.95;;;32.20;99.90;;;;;;5055528;28;20342;-71
2022/08/27 09:34:39;;;;;;;7.60;1.88;;;31.90;99.90;;;;;;5052061;28;20033;-71
2022/08/27 09:37:14;;;;;;;6.95;2.10;;;31.70;99.90;;;;;;5055246;28;20023;-71
2022/08/27 09:39:51;;;;;;;10.07;2.47;;;31.50;99.90;;;;;;5055207;28;20033;-71
2022/08/27 09:42:49;;;;;;;4.40;1.80;;;31.50;99.90;;;;;;5055035;28;20108;-71
2022/08/27 09:45:28;;;;;;;5.97;2.33;;;31.50;99.90;;;;;;5053110;28;20047;-71
2022/08/27 09:48:13;;;;;;;6.20;2.10;;;31.50;99.90;;;;;;5054912;28;20124;-71
2022/08/27 09:50:57;;;;;;;5.18;2.30;;;31.40;99.90;;;;;;5054908;28;20057;-71
2022/08/27 09:53:35;;;;;;;6.65;2.22;;;31.20;99.90;;;;;;5053346;28;20035;-71
2022/08/27 09:56:08;;;;;;;7.65;2.10;;;31.20;99.90;;;;;;5054952;28;20026;-71
2022/08/27 09:59:00;;;;;;;6.70;2.35;;;31.00;99.90;;;;;;5053163;28;20029;-69
2022/08/27 10:01:29;;;;;;;5.45;1.80;;;30.60;99.90;;;;;;5054226;28;20112;-69
2022/08/27 10:04:16;;;;;;;6.25;1.92;;;30.40;99.90;;;;;;5054253;28;20036;-69
2022/08/27 10:06:48;;;;;;;4.25;1.90;;;30.40;99.90;;;;;;5054312;28;20029;-69
2022/08/27 10:09:32;;;;;;;9.48;2.42;;;30.40;99.90;;;;;;5054669;28;20354;-70
2022/08/27 10:12:23;;;;;;;6.45;2.03;;;30.60;99.90;;;;;;5054390;28;20013;-70
2022/08/27 10:14:57;;;;;;;8.00;2.00;;;30.70;99.90;;;;;;5054114;28;20067;-70
2022/08/27 10:17:41;;;;;;;6.32;2.00;;;30.90;99.90;;;;;;5054401;28;20070;-70
2022/08/27 10:20:39;;;;;;;4.40;1.83;;;31.00;99.90;;;;;;5054205;28;20528;-70
2022/08/27 10:23:38;;;;;;;5.10;1.70;;;31.10;99.90;;;;;;5054248;28;20465;-70
2022/08/27 10:26:30;;;;;;;6.45;1.95;;;31.10;99.90;;;;;;5053261;28;20421;-70
2022/08/27 10:29:08;;;;;;;6.15;1.90;;;31.40;99.90;;;;;;5052672;28;20048;-70
2022/08/27 10:32:02;;;;;;;4.43;2.00;;;31.50;99.90;;;;;;5054004;28;20100;-70
2022/08/27 10:34:28;;;;;;;8.23;2.15;;;31.60;99.90;;;;;;5053664;28;20039;-70
2022/08/27 10:37:06;;;;;;;6.88;1.80;;;31.50;99.90;;;;;;5054204;28;20099;-70
2022/08/27 10:39:44;;;;;;;5.95;2.20;;;31.50;99.90;;;;;;5054081;28;20100;-70
2022/08/27 10:42:25;;;;;;;5.03;1.70;;;31.60;99.90;;;;;;5053950;28;20021;-70
2022/08/27 10:45:14;;;;;;;6.85;2.13;;;31.70;99.90;;;;;;5053908;28;20035;-70
2022/08/27 10:48:15;;;;;;;5.22;1.80;;;31.60;99.90;;;;;;5053784;28;20044;-70
2022/08/27 10:50:50;;;;;;;7.05;2.20;;;31.70;99.90;;;;;;5054009;28;20056;-70
2022/08/27 10:53:34;;;;;;;4.10;1.60;;;31.80;99.90;;;;;;5054300;28;20052;-71
2022/08/27 10:56:15;;;;;;;6.37;1.93;;;32.00;99.90;;;;;;5053903;28;20021;-70
2022/08/27 10:59:09;;;;;;;5.18;1.75;;;32.00;99.90;;;;;;5054331;28;20021;-70
2022/08/27 11:02:05;;;;;;;7.57;2.00;;;32.00;99.90;;;;;;5052441;28;20438;-70
2022/08/27 11:04:38;;;;;;;4.40;1.90;;;32.00;99.90;;;;;;5054219;28;20025;-70
2022/08/27 11:07:16;;;;;;;10.55;2.55;;;31.70;99.90;;;;;;5053560;28;20032;-70
2022/08/27 11:10:04;;;;;;;6.68;2.47;;;31.40;99.90;;;;;;5054066;28;20084;-71
2022/08/27 11:12:36;;;;;;;5.78;1.92;;;31.50;99.90;;;;;;5054164;28;20481;-70
2022/08/27 11:15:14;;;;;;;5.78;2.10;;;31.30;99.90;;;;;;5054111;28;20021;-70
2022/08/27 11:18:00;;;;;;;5.60;1.85;;;31.30;99.90;;;;;;5054062;28;20025;-70
2022/08/27 11:20:48;;;;;;;7.88;1.88;;;31.30;99.90;;;;;;5054034;28;20025;-70
2022/08/27 11:23:22;;;;;;;9.20;1.83;;;31.30;99.90;;;;;;5049408;28;20041;-70
2022/08/27 11:25:58;;;;;;;7.28;1.80;;;31.30;99.90;;;;;;5053756;28;20094;-70
2022/08/27 11:28:44;;;;;;;6.40;1.90;;;31.40;99.90;;;;;;5053654;28;20041;-70
2022/08/27 11:31:23;;;;;;;4.00;1.85;;;31.50;99.90;;;;;;5053569;28;20025;-70
2022/08/27 11:34:16;;;;;;;5.07;2.22;;;31.70;99.90;;;;;;5053658;28;20181;-70
2022/08/27 11:37:09;;;;;;;5.43;1.75;;;31.60;99.90;;;;;;5053133;28;20032;-71
2022/08/27 11:40:05;;;;;;;4.57;1.83;;;31.70;99.90;;;;;;5053669;28;20409;-71
2022/08/27 11:42:36;;;;;;;4.07;1.55;;;31.80;99.90;;;;;;5053557;28;20025;-70
2022/08/27 11:45:14;;;;;;;3.92;1.85;;;31.70;99.90;;;;;;5053113;28;20029;-70
2022/08/27 11:47:54;;;;;;;4.40;2.00;;;31.80;99.90;;;;;;5051685;28;20127;-70
2022/08/27 11:50:23;;;;;;;6.47;2.10;;;31.90;99.90;;;;;;5053017;28;20132;-70
2022/08/27 11:53:06;;;;;;;6.70;1.98;;;31.90;99.90;;;;;;5051590;28;20339;-70
2022/08/27 11:55:38;;;;;;;6.18;2.05;;;32.10;99.90;;;;;;5053189;28;20078;-70
2022/08/27 11:58:28;;;;;;;6.10;2.03;;;31.90;99.90;;;;;;5053205;28;20051;-71
2022/08/27 12:00:55;;;;;;;4.88;1.92;;;31.80;99.90;;;;;;5052883;28;20036;-70
2022/08/27 12:03:24;;;;;;;4.97;2.00;;;31.90;99.90;;;;;;5052903;28;20075;-70
2022/08/27 12:05:53;;;;;;;12.23;2.38;;;31.90;99.90;;;;;;5052919;28;20499;-70
2022/08/27 12:08:22;;;;;;;6.43;1.80;;;31.80;99.90;;;;;;5053238;28;20041;-71
2022/08/27 12:10:57;;;;;;;4.57;1.88;;;31.80;99.90;;;;;;5051374;28;20119;-70
2022/08/27 12:13:44;;;;;;;4.30;1.75;;;31.70;99.90;;;;;;5052748;28;20029;-71
2022/08/27 12:16:29;;;;;;;4.97;1.80;;;31.70;99.90;;;;;;5052644;28;20029;-70
2022/08/27 12:19:45;;;;;;;7.13;1.95;;;31.50;99.90;;;;;;5053025;28;20047;-70
2022/08/27 12:25:34;;;;;;;6.22;1.90;;;31.70;99.90;;;;;;5044329;28;20086;-71
2022/08/27 12:28:04;;;;;;;4.03;1.55;;;31.80;99.90;;;;;;5052243;28;20049;-71
2022/08/27 12:30:34;;;;;;;4.70;1.70;;;31.90;99.90;;;;;;5052455;28;20025;-70
2022/08/27 12:33:45;;;;;;;4.15;1.70;;;31.90;99.90;;;;;;5052771;28;20025;-70
2022/08/27 12:36:21;;;;;;;7.45;2.00;;;32.10;99.90;;;;;;5051055;28;20159;-71
2022/08/27 12:38:52;;;;;;;3.25;1.50;;;31.90;99.90;;;;;;5052082;28;20108;-70
2022/08/27 12:41:37;;;;;;;4.70;1.90;;;31.90;99.90;;;;;;5052691;28;20440;-70
2022/08/27 12:44:12;;;;;;;4.10;1.70;;;31.90;99.90;;;;;;5055411;28;20013;-71
2022/08/27 12:46:46;;;;;;;5.03;1.80;;;31.90;99.90;;;;;;5056982;28;20021;-71
2022/08/27 12:49:17;;;;;;;5.68;1.98;;;31.90;99.90;;;;;;5056757;28;20174;-70
2022/08/27 12:51:44;;;;;;;6.43;1.70;;;32.00;99.90;;;;;;5054996;28;20327;-70
2022/08/27 12:54:38;;;;;;;4.25;1.70;;;32.00;99.90;;;;;;5056387;28;20107;-70
2022/08/27 12:57:24;;;;;;;4.85;1.88;;;31.90;99.90;;;;;;5056767;28;20025;-71
2022/08/27 13:00:34;;;;;;;6.47;2.13;;;32.00;99.90;;;;;;5056686;28;20021;-70
2022/08/27 13:03:32;;;;;;;5.45;1.65;;;32.00;99.90;;;;;;5034619;28;20022;-70
2022/08/27 13:06:00;;;;;;;4.68;1.85;;;31.90;99.90;;;;;;5034296;28;20040;-71
2022/08/27 13:08:32;;;;;;;6.85;2.15;;;31.60;99.90;;;;;;5033732;28;20418;-70
2022/08/27 13:11:42;;;;;;;5.90;1.70;;;31.70;99.90;;;;;;5034378;28;20026;-71
2022/08/27 13:14:16;;;;;;;4.72;1.63;;;31.60;99.90;;;;;;4994503;28;20121;-70
2022/08/27 13:16:52;;;;;;;3.47;1.58;;;31.80;99.90;;;;;;4994368;28;20034;-71
2022/08/27 13:19:42;;;;;;;5.05;1.60;;;31.90;99.90;;;;;;4994958;28;20092;-70
2022/08/27 13:22:08;;;;;;;5.50;1.60;;;31.90;99.90;;;;;;4994675;28;20026;-70
2022/08/27 13:24:47;;;;;;;5.03;1.80;;;31.60;99.90;;;;;;4994536;28;20122;-70